Time;durP1;ratioP1;P1;durP2;ratioP2;P2;SDS_P1;SDS_P2;PMS_P1;PMS_P2;Temp;Humidity;BMP_temperature;BMP_pressure;BME280_temperature;BME280_humidity;BME280_pressure;Samples;Min_cycle;Max_cycle;Signal;HPM_P1;HPM_P2
2022/06/19 00:00:19;;;;;;;0.90;0.60;;;;;;;23.22;47.10;100867.72;4971374;28;97003;-91
2022/06/19 00:02:46;;;;;;;1.73;0.80;;;;;;;23.26;47.18;100868.06;4955003;28;102800;-90
2022/06/19 00:05:14;;;;;;;0.90;0.73;;;;;;;23.26;47.10;100849.16;4980179;28;99205;-87
2022/06/19 00:07:39;;;;;;;1.00;0.80;;;;;;;23.22;47.03;100853.69;4966779;28;98597;-89
2022/06/19 00:10:06;;;;;;;0.80;0.70;;;;;;;23.11;46.97;100863.31;4934404;28;96736;-88
2022/06/19 00:12:32;;;;;;;1.20;0.60;;;;;;;23.06;47.11;100861.50;4948664;28;97387;-90
2022/06/19 00:14:58;;;;;;;1.50;0.70;;;;;;;23.03;47.28;100857.78;4950936;28;98813;-90
2022/06/19 00:17:23;;;;;;;1.20;0.83;;;;;;;23.00;47.29;100863.78;4939540;28;97771;-87
2022/06/19 00:19:49;;;;;;;1.93;0.80;;;;;;;22.99;47.17;100846.22;4943080;28;96989;-92
2022/06/19 00:22:14;;;;;;;3.93;0.80;;;;;;;22.95;47.25;100839.53;4949464;28;96858;-89
2022/06/19 00:24:39;;;;;;;0.93;0.60;;;;;;;22.94;47.42;100849.25;4952685;28;96890;-88
2022/06/19 00:27:05;;;;;;;0.70;0.60;;;;;;;22.91;47.47;100856.75;4946250;28;97382;-88
2022/06/19 00:29:31;;;;;;;3.13;0.70;;;;;;;22.87;47.36;100845.19;4945405;28;96813;-88
2022/06/19 00:31:56;;;;;;;1.47;0.60;;;;;;;22.83;47.33;100860.94;4953483;28;97022;-88
2022/06/19 00:34:22;;;;;;;1.13;0.87;;;;;;;22.85;47.49;100838.66;4950879;28;98981;-89
2022/06/19 00:36:49;;;;;;;0.77;0.70;;;;;;;22.82;47.32;100814.59;4951212;28;98122;-89
2022/06/19 00:39:16;;;;;;;0.70;0.53;;;;;;;22.79;47.33;100818.53;4944713;28;97148;-91
2022/06/19 00:41:44;;;;;;;3.40;0.63;;;;;;;22.73;47.53;100806.78;4955738;28;96761;-88
2022/06/19 00:44:12;;;;;;;1.47;0.80;;;;;;;22.63;47.57;100794.75;4949279;28;96851;-87
2022/06/19 00:46:49;;;;;;;0.73;0.73;;;;;;;22.51;47.94;100802.09;4945620;28;98977;-88
2022/06/19 00:49:19;;;;;;;0.90;0.60;;;;;;;22.44;48.12;100806.44;4943238;28;97204;-88
2022/06/19 00:51:46;;;;;;;2.40;0.50;;;;;;;22.36;47.97;100803.69;4949705;28;97302;-86
2022/06/19 00:54:16;;;;;;;0.90;0.60;;;;;;;22.32;48.14;100806.13;4951541;28;99102;-89
2022/06/19 00:56:42;;;;;;;1.50;1.10;;;;;;;22.26;48.16;100804.88;4952235;28;96727;-88
2022/06/19 00:59:08;;;;;;;0.60;0.50;;;;;;;22.25;48.13;100794.97;4948975;28;97130;-89
2022/06/19 01:01:34;;;;;;;1.33;0.67;;;;;;;22.21;48.20;100791.84;4947232;28;97047;-88
2022/06/19 01:04:05;;;;;;;1.07;0.70;;;;;;;22.15;48.24;100786.44;4949708;28;97854;-88
2022/06/19 01:06:31;;;;;;;1.47;0.70;;;;;;;22.08;48.34;100800.50;4947356;28;97606;-88
2022/06/19 01:08:57;;;;;;;1.17;0.63;;;;;;;22.01;48.44;100804.84;4948185;28;96924;-88
2022/06/19 01:11:25;;;;;;;1.27;0.60;;;;;;;21.92;48.54;100787.91;4950591;28;97322;-87
2022/06/19 01:13:51;;;;;;;0.70;0.57;;;;;;;21.83;48.71;100797.66;4933250;28;99555;-86
2022/06/19 01:16:17;;;;;;;1.03;0.83;;;;;;;21.79;48.52;100785.31;4945230;28;98088;-87
2022/06/19 01:18:43;;;;;;;1.00;0.67;;;;;;;21.77;48.79;100787.94;4943606;28;96981;-89
2022/06/19 01:21:24;;;;;;;1.30;0.80;;;;;;;21.72;48.85;100775.63;4944377;28;96931;-88
2022/06/19 01:24:07;;;;;;;1.40;0.70;;;;;;;21.66;48.95;100766.72;4946433;28;97177;-90
2022/06/19 01:26:39;;;;;;;0.90;0.80;;;;;;;21.60;49.10;100760.59;4938794;28;102511;-86
2022/06/19 01:29:04;;;;;;;1.53;0.80;;;;;;;21.53;49.13;100767.72;4945362;28;97147;-89
2022/06/19 01:31:52;;;;;;;1.90;0.77;;;;;;;21.52;49.58;100757.06;4947556;28;97009;-88
2022/06/19 01:34:31;;;;;;;1.47;0.70;;;;;;;21.49;49.48;100764.53;4950732;28;104215;-88
2022/06/19 01:37:11;;;;;;;2.30;0.83;;;;;;;21.49;49.43;100739.34;4956210;28;96794;-90
2022/06/19 01:39:58;;;;;;;1.17;0.87;;;;;;;21.48;49.55;100745.50;4952826;28;97272;-87
2022/06/19 01:42:25;;;;;;;2.00;0.77;;;;;;;21.48;49.07;100751.09;4950739;28;96753;-87
2022/06/19 01:44:53;;;;;;;1.30;0.70;;;;;;;21.46;48.96;100759.31;4954070;28;96765;-88
2022/06/19 01:47:18;;;;;;;1.83;0.70;;;;;;;21.39;48.95;100751.69;4957070;28;97074;-86
2022/06/19 01:49:49;;;;;;;1.17;0.50;;;;;;;21.37;49.39;100749.47;4951361;28;97158;-88
2022/06/19 01:52:15;;;;;;;0.70;0.60;;;;;;;21.33;49.24;100734.38;4952735;28;98051;-88
2022/06/19 01:54:53;;;;;;;0.90;0.80;;;;;;;21.31;49.96;100726.53;4949381;28;97681;-88
2022/06/19 01:57:19;;;;;;;1.50;0.80;;;;;;;21.29;49.35;100722.81;4951961;28;96981;-87
2022/06/19 01:59:47;;;;;;;2.40;1.03;;;;;;;21.27;49.32;100705.84;4956076;28;96756;-87
2022/06/19 02:02:14;;;;;;;2.33;0.73;;;;;;;21.19;49.30;100702.31;4956144;28;96693;-89
2022/06/19 02:04:42;;;;;;;0.80;0.50;;;;;;;21.15;49.46;100704.75;4951106;28;99766;-88
2022/06/19 02:07:13;;;;;;;1.20;0.57;;;;;;;21.09;49.72;100723.81;4946991;28;99412;-87
2022/06/19 02:09:38;;;;;;;1.90;0.70;;;;;;;21.02;49.71;100727.34;4945220;28;96975;-89
2022/06/19 02:12:05;;;;;;;1.07;0.67;;;;;;;21.01;49.72;100704.25;4948490;28;96725;-88
2022/06/19 02:14:32;;;;;;;0.93;0.80;;;;;;;20.98;49.67;100699.75;4944682;28;98459;-88
2022/06/19 02:17:03;;;;;;;2.13;0.70;;;;;;;20.96;49.81;100710.03;4949475;28;98896;-88
2022/06/19 02:19:29;;;;;;;0.83;0.50;;;;;;;20.90;49.71;100701.84;4946492;28;96656;-87
2022/06/19 02:21:55;;;;;;;2.43;0.90;;;;;;;20.87;49.78;100686.94;4949991;28;96898;-86
2022/06/19 02:24:23;;;;;;;1.10;0.80;;;;;;;20.83;50.12;100686.56;4933142;28;99175;-88
2022/06/19 02:26:50;;;;;;;1.33;0.70;;;;;;;20.78;50.07;100679.13;4926076;28;96951;-86
2022/06/19 02:29:18;;;;;;;4.30;0.77;;;;;;;20.73;50.27;100666.06;4947963;28;96937;-87
2022/06/19 02:31:48;;;;;;;1.10;0.60;;;;;;;20.74;50.28;100680.81;4956176;28;101590;-87
2022/06/19 02:34:25;;;;;;;1.53;0.70;;;;;;;20.72;50.78;100681.38;4950845;28;96710;-88
2022/06/19 02:37:13;;;;;;;0.60;0.50;;;;;;;20.69;51.27;100668.50;4955362;28;96976;-87
2022/06/19 02:40:08;;;;;;;2.87;1.00;;;;;;;20.71;50.97;100660.31;4946417;28;96954;-87
2022/06/19 02:42:39;;;;;;;3.57;0.80;;;;;;;20.68;50.29;100672.63;4958140;28;97393;-87
2022/06/19 02:45:16;;;;;;;0.70;0.60;;;;;;;20.70;51.08;100660.88;4948054;28;97268;-88
2022/06/19 02:47:43;;;;;;;1.57;0.50;;;;;;;20.69;50.19;100656.56;4951618;28;102626;-90
2022/06/19 02:50:12;;;;;;;0.80;0.57;;;;;;;20.71;50.11;100659.56;4949311;28;96829;-88
2022/06/19 02:52:38;;;;;;;1.17;0.80;;;;;;;20.75;50.03;100663.47;4952509;28;96623;-89
2022/06/19 02:55:04;;;;;;;1.30;0.97;;;;;;;20.82;50.07;100648.72;4948831;28;98982;-87
2022/06/19 02:57:29;;;;;;;1.33;1.00;;;;;;;20.84;49.93;100645.34;4948516;28;97032;-86
2022/06/19 02:59:55;;;;;;;2.10;0.70;;;;;;;20.77;49.67;100649.66;4946974;28;97214;-85
2022/06/19 03:02:21;;;;;;;1.33;0.70;;;;;;;20.71;49.81;100637.94;4949758;28;97062;-86
2022/06/19 03:04:58;;;;;;;3.33;1.20;;;;;;;20.66;50.25;100624.91;4953694;28;99789;-86
2022/06/19 03:07:29;;;;;;;2.10;0.80;;;;;;;20.62;49.88;100621.75;4964660;28;97273;-87
2022/06/19 03:09:55;;;;;;;1.33;0.70;;;;;;;20.61;49.80;100602.75;4967298;28;96944;-87
2022/06/19 03:12:20;;;;;;;1.37;0.60;;;;;;;20.59;49.84;100589.34;4943815;28;97268;-88
2022/06/19 03:14:46;;;;;;;1.30;0.83;;;;;;;20.57;49.74;100566.78;4948553;28;99134;-87
2022/06/19 03:17:14;;;;;;;2.53;0.73;;;;;;;20.58;49.69;100561.94;4951312;28;96894;-89
2022/06/19 03:19:40;;;;;;;3.33;0.80;;;;;;;20.57;49.55;100550.03;4948967;28;97174;-87
2022/06/19 03:22:06;;;;;;;5.43;0.83;;;;;;;20.48;49.61;100528.25;4951749;28;97400;-90
2022/06/19 03:24:31;;;;;;;1.73;0.80;;;;;;;20.45;49.51;100515.41;4948061;28;100010;-88
2022/06/19 03:26:56;;;;;;;2.00;0.83;;;;;;;20.44;49.41;100515.97;4945530;28;97936;-88
2022/06/19 03:29:22;;;;;;;2.07;1.03;;;;;;;20.38;49.56;100491.00;4949078;28;97449;-89
2022/06/19 03:31:48;;;;;;;2.57;1.10;;;;;;;20.37;49.59;100500.72;4943374;28;97440;-88
2022/06/19 03:34:13;;;;;;;1.50;0.80;;;;;;;20.42;49.54;100466.22;4951028;28;97191;-87
2022/06/19 03:36:38;;;;;;;0.90;0.73;;;;;;;20.43;49.49;100473.28;4941589;28;98158;-86
2022/06/19 03:39:04;;;;;;;2.13;1.00;;;;;;;20.45;49.43;100458.75;4928923;28;97151;-87
2022/06/19 03:41:29;;;;;;;1.57;1.00;;;;;;;20.44;49.21;100457.28;4950264;28;96909;-88
2022/06/19 03:43:55;;;;;;;1.97;0.60;;;;;;;20.42;49.39;100449.44;4940431;28;98001;-86
2022/06/19 03:46:20;;;;;;;1.10;0.80;;;;;;;20.40;49.32;100459.72;4940145;28;100107;-87
2022/06/19 03:48:51;;;;;;;1.30;0.90;;;;;;;20.36;49.35;100467.72;4945540;28;96800;-88
2022/06/19 03:51:22;;;;;;;2.97;0.90;;;;;;;20.37;49.54;100502.75;4951489;28;96681;-89
2022/06/19 03:53:49;;;;;;;1.70;0.80;;;;;;;20.41;49.53;100491.94;4950591;28;100961;-89
2022/06/19 03:56:17;;;;;;;1.10;0.60;;;;;;;20.39;49.54;100492.50;4947480;28;98197;-88
2022/06/19 03:58:46;;;;;;;0.70;0.60;;;;;;;20.41;49.48;100487.09;4948656;28;97091;-88
2022/06/19 04:01:16;;;;;;;2.50;0.90;;;;;;;20.44;49.48;100494.38;4951673;28;97091;-88
2022/06/19 04:03:42;;;;;;;1.40;0.67;;;;;;;20.49;49.31;100509.41;4956420;28;100043;-88
2022/06/19 04:06:10;;;;;;;3.50;1.17;;;;;;;20.45;49.14;100529.38;4946573;28;99267;-87
2022/06/19 04:08:37;;;;;;;1.33;0.93;;;;;;;20.47;49.32;100562.34;4939575;28;97193;-86
2022/06/19 04:11:03;;;;;;;4.20;1.07;;;;;;;20.41;49.05;100593.28;4943485;28;96985;-87
2022/06/19 04:13:29;;;;;;;1.00;0.80;;;;;;;20.41;49.14;100572.97;4944513;28;98902;-86
2022/06/19 04:15:54;;;;;;;1.17;0.63;;;;;;;20.29;49.07;100578.22;4946807;28;97406;-86
2022/06/19 04:18:20;;;;;;;2.40;0.77;;;;;;;20.28;48.90;100571.16;4945013;28;96974;-88
2022/06/19 04:20:45;;;;;;;1.10;0.80;;;;;;;20.26;49.10;100579.34;4949705;28;97150;-89
2022/06/19 04:23:11;;;;;;;4.63;1.40;;;;;;;20.16;48.93;100564.41;4944888;28;97569;-88
2022/06/19 04:25:37;;;;;;;6.27;1.13;;;;;;;20.19;48.96;100564.06;4948219;28;99105;-88
2022/06/19 04:28:02;;;;;;;3.33;0.77;;;;;;;20.16;48.90;100553.25;4948985;28;96698;-89
2022/06/19 04:30:28;;;;;;;3.00;1.10;;;;;;;20.10;48.63;100573.00;4944822;28;96958;-87
2022/06/19 04:32:53;;;;;;;3.70;1.10;;;;;;;20.03;48.78;100575.81;4949082;28;99182;-87
2022/06/19 04:35:19;;;;;;;1.30;0.70;;;;;;;19.99;48.71;100562.22;4946646;28;98398;-90
2022/06/19 04:37:44;;;;;;;1.73;1.00;;;;;;;19.96;48.45;100543.78;4948869;28;96872;-87
2022/06/19 04:40:11;;;;;;;3.70;1.30;;;;;;;19.96;48.58;100538.19;4947256;28;97354;-87
2022/06/19 04:42:37;;;;;;;5.10;1.20;;;;;;;19.98;48.25;100551.63;4954917;28;99966;-88
2022/06/19 04:45:03;;;;;;;0.90;0.60;;;;;;;20.00;48.29;100554.59;4953311;28;98158;-88
2022/06/19 04:47:28;;;;;;;3.20;1.43;;;;;;;20.10;48.30;100583.44;4952064;28;97174;-88
2022/06/19 04:49:54;;;;;;;4.70;1.20;;;;;;;20.17;48.04;100577.09;4946590;28;97354;-86
2022/06/19 04:52:19;;;;;;;2.93;1.37;;;;;;;20.20;48.06;100570.41;4947811;28;98647;-88
2022/06/19 04:54:45;;;;;;;1.97;0.83;;;;;;;20.21;47.59;100579.53;4949348;28;97614;-86
2022/06/19 04:57:11;;;;;;;2.77;0.97;;;;;;;20.15;47.13;100565.75;4950427;28;96670;-88
2022/06/19 04:59:37;;;;;;;4.63;1.20;;;;;;;20.13;47.09;100585.88;4930789;28;97367;-88
2022/06/19 05:02:03;;;;;;;2.70;1.07;;;;;;;20.14;46.85;100562.19;4946270;28;99110;-87
2022/06/19 05:04:28;;;;;;;1.07;0.80;;;;;;;20.09;46.62;100571.50;4947167;28;97128;-85
2022/06/19 05:06:54;;;;;;;3.27;1.37;;;;;;;20.07;46.55;100560.16;4944117;28;97089;-87
2022/06/19 05:09:19;;;;;;;7.23;1.33;;;;;;;20.09;46.51;100554.75;4961438;28;96931;-90
2022/06/19 05:11:45;;;;;;;3.73;1.00;;;;;;;20.04;46.40;100549.38;4945872;28;97902;-86
2022/06/19 05:14:10;;;;;;;2.67;0.80;;;;;;;20.07;46.61;100540.59;4947300;28;97664;-86
2022/06/19 05:16:36;;;;;;;4.03;1.10;;;;;;;20.01;46.19;100531.69;4936200;28;97418;-89
2022/06/19 05:19:03;;;;;;;3.53;1.20;;;;;;;20.05;46.08;100546.00;4950632;28;96825;-87
2022/06/19 05:21:28;;;;;;;4.23;1.20;;;;;;;20.06;45.77;100527.22;4941955;28;97988;-88
2022/06/19 05:23:55;;;;;;;4.03;1.10;;;;;;;20.08;45.92;100524.59;4931479;28;97100;-91
2022/06/19 05:26:27;;;;;;;4.97;1.27;;;;;;;20.08;45.74;100525.34;4941962;28;97101;-87
2022/06/19 05:28:55;;;;;;;8.70;1.27;;;;;;;20.16;46.17;100517.69;4965017;28;96890;-87
2022/06/19 05:31:21;;;;;;;2.37;0.97;;;;;;;20.28;45.89;100523.66;4948313;28;97961;-89
2022/06/19 05:33:46;;;;;;;2.97;1.23;;;;;;;20.34;45.86;100549.34;4948347;28;96797;-88
2022/06/19 05:36:12;;;;;;;4.23;1.30;;;;;;;20.40;45.97;100552.66;4948087;28;97257;-88
2022/06/19 05:38:38;;;;;;;1.60;0.87;;;;;;;20.45;45.97;100548.94;4951989;28;97061;-87
2022/06/19 05:41:04;;;;;;;3.57;1.13;;;;;;;20.52;46.03;100553.00;4941416;28;97875;-86
2022/06/19 05:43:31;;;;;;;3.03;1.33;;;;;;;20.58;46.06;100561.94;4947614;28;97406;-85
2022/06/19 05:45:59;;;;;;;6.77;1.23;;;;;;;20.63;46.02;100581.31;4952357;28;96720;-88
2022/06/19 05:48:26;;;;;;;4.00;1.00;;;;;;;20.67;46.05;100581.66;4963381;28;97060;-87
2022/06/19 05:51:13;;;;;;;5.40;1.30;;;;;;;20.71;46.11;100579.22;4945295;28;99029;-90
2022/06/19 05:53:42;;;;;;;4.73;1.63;;;;;;;20.80;45.93;100577.88;4936671;28;102481;-86
2022/06/19 05:56:08;;;;;;;2.70;1.03;;;;;;;20.80;45.94;100587.00;4938447;28;97015;-87
2022/06/19 05:58:35;;;;;;;2.80;1.43;;;;;;;20.83;45.85;100590.75;4943051;28;97167;-87
2022/06/19 06:01:01;;;;;;;3.40;1.50;;;;;;;20.92;46.05;100602.06;4947410;28;98717;-88
2022/06/19 06:03:27;;;;;;;2.07;1.40;;;;;;;20.99;46.06;100622.19;4944081;28;96929;-86
2022/06/19 06:05:52;;;;;;;1.50;1.00;;;;;;;21.02;45.89;100605.00;4937647;28;97117;-88
2022/06/19 06:08:18;;;;;;;4.93;1.33;;;;;;;21.01;46.02;100605.59;4954448;28;97334;-88
2022/06/19 06:10:45;;;;;;;5.53;1.40;;;;;;;21.08;46.05;100602.75;4947734;28;99699;-87
2022/06/19 06:13:11;;;;;;;6.50;1.20;;;;;;;21.03;45.92;100622.53;4952114;28;96835;-87
2022/06/19 06:15:36;;;;;;;3.10;1.67;;;;;;;21.07;46.02;100595.69;4956928;28;97439;-86
2022/06/19 06:18:02;;;;;;;3.10;1.30;;;;;;;21.09;45.90;100595.13;4946845;28;97007;-87
2022/06/19 06:20:30;;;;;;;6.20;1.70;;;;;;;21.11;46.12;100604.44;4954183;28;99395;-91
2022/06/19 06:22:56;;;;;;;7.30;1.83;;;;;;;21.13;46.17;100615.81;4953510;28;98954;-86
2022/06/19 06:25:22;;;;;;;3.47;1.50;;;;;;;21.14;46.10;100594.91;4963538;28;96595;-88
2022/06/19 06:27:47;;;;;;;1.70;0.90;;;;;;;21.22;46.02;100564.09;4945459;28;97067;-89
2022/06/19 06:30:13;;;;;;;5.50;1.40;;;;;;;21.30;46.17;100576.72;4950187;28;99467;-87
2022/06/19 06:32:39;;;;;;;3.03;1.30;;;;;;;21.40;46.19;100616.03;4933918;28;97132;-87
2022/06/19 06:35:05;;;;;;;6.93;1.70;;;;;;;21.46;45.98;100596.97;4945770;28;96884;-88
2022/06/19 06:37:31;;;;;;;6.33;1.87;;;;;;;21.51;46.01;100587.59;4944517;28;97161;-86
2022/06/19 06:39:56;;;;;;;3.40;1.33;;;;;;;21.54;46.03;100561.25;4962169;28;97895;-84
2022/06/19 06:42:22;;;;;;;6.13;1.70;;;;;;;21.49;46.04;100553.84;4950786;28;98463;-90
2022/06/19 06:44:47;;;;;;;2.80;1.40;;;;;;;21.47;46.28;100553.66;4945629;28;97032;-86
2022/06/19 06:47:13;;;;;;;6.00;1.90;;;;;;;21.50;46.37;100558.84;4948423;28;97390;-85
2022/06/19 06:49:38;;;;;;;6.53;2.17;;;;;;;21.47;46.15;100523.59;4949243;28;98136;-86
2022/06/19 06:52:08;;;;;;;5.80;1.90;;;;;;;21.57;46.47;100532.13;4954224;28;96939;-87
2022/06/19 06:54:38;;;;;;;4.40;1.60;;;;;;;21.67;46.53;100544.16;4951389;28;96822;-87
2022/06/19 06:57:06;;;;;;;4.07;1.70;;;;;;;21.77;46.22;100547.81;4951197;28;97071;-83
2022/06/19 06:59:32;;;;;;;4.60;1.77;;;;;;;21.72;46.30;100548.78;4954514;28;99535;-86
2022/06/19 07:01:58;;;;;;;5.63;1.77;;;;;;;21.79;46.29;100553.59;4943479;28;97625;-86
2022/06/19 07:04:23;;;;;;;3.70;1.27;;;;;;;21.83;46.32;100556.00;4943911;28;96670;-86
2022/06/19 07:06:49;;;;;;;4.70;1.53;;;;;;;21.92;46.03;100542.13;4950215;28;96941;-88
2022/06/19 07:09:14;;;;;;;5.60;1.87;;;;;;;21.98;45.80;100550.25;4948022;28;99190;-87
2022/06/19 07:11:42;;;;;;;4.07;1.50;;;;;;;22.04;45.76;100531.91;4941653;28;99803;-86
2022/06/19 07:14:08;;;;;;;4.17;1.40;;;;;;;22.12;45.67;100526.22;4949111;28;97299;-88
2022/06/19 07:16:34;;;;;;;3.47;1.63;;;;;;;22.17;45.57;100539.97;4950881;28;97410;-85
2022/06/19 07:19:00;;;;;;;7.00;1.90;;;;;;;22.20;45.41;100533.25;4951816;28;99061;-89
2022/06/19 07:21:26;;;;;;;4.53;1.50;;;;;;;22.32;45.41;100539.09;4967730;28;97146;-86
2022/06/19 07:23:51;;;;;;;5.70;1.90;;;;;;;22.35;44.96;100571.56;4944396;28;96808;-87
2022/06/19 07:26:20;;;;;;;5.77;1.60;;;;;;;22.36;44.89;100540.16;4950307;28;97077;-87
2022/06/19 07:28:46;;;;;;;3.57;1.50;;;;;;;22.41;44.65;100552.44;4944197;28;103035;-89
2022/06/19 07:31:12;;;;;;;4.10;1.10;;;;;;;22.45;44.64;100546.44;4950502;28;97716;-87
2022/06/19 07:33:38;;;;;;;4.10;1.40;;;;;;;;;;4940107;28;97208;-86
2022/06/19 07:36:08;;;;;;;4.40;1.60;;;;;;;22.57;44.16;100527.75;4966216;28;96837;-87
2022/06/19 07:38:34;;;;;;;4.37;1.43;;;;;;;22.62;44.22;100481.94;4954303;28;98116;-89
2022/06/19 07:41:00;;;;;;;4.53;1.60;;;;;;;22.60;44.09;100523.84;4945060;28;98577;-90
2022/06/19 07:43:27;;;;;;;3.80;1.43;;;;;;;22.64;43.80;100502.47;4948207;28;97057;-89
2022/06/19 07:45:52;;;;;;;4.67;1.20;;;;;;;22.69;43.82;100489.50;4947975;28;97173;-86
2022/06/19 07:51:02;;;;;;;3.50;1.20;;;;;;;22.85;43.97;100490.78;4949214;28;97400;-87
2022/06/19 07:53:27;;;;;;;6.90;1.83;;;;;;;22.97;43.54;100497.34;4962037;28;97022;-89
2022/06/19 07:55:53;;;;;;;3.93;1.37;;;;;;;22.99;43.37;100489.84;4953911;28;97302;-90
2022/06/19 07:58:19;;;;;;;3.00;1.50;;;;;;;22.93;43.36;100483.00;4952762;28;97159;-88
2022/06/19 08:00:44;;;;;;;2.80;1.20;;;;;;;22.99;43.60;100505.91;4972618;28;96740;-88
2022/06/19 08:03:10;;;;;;;3.17;1.57;;;;;;;23.13;43.21;100500.69;4952527;28;97116;-89
2022/06/19 08:05:37;;;;;;;5.23;1.33;;;;;;;23.18;43.01;100505.25;4949597;28;97351;-90
2022/06/19 08:08:07;;;;;;;3.97;1.37;;;;;;;23.22;43.09;100492.28;4938903;28;97650;-90
2022/06/19 08:10:36;;;;;;;5.30;1.83;;;;;;;23.28;42.86;100518.03;4944622;28;97652;-87
2022/06/19 08:13:02;;;;;;;3.23;1.30;;;;;;;23.34;42.84;100529.75;4949681;28;96731;-88
2022/06/19 08:15:29;;;;;;;1.60;1.00;;;;;;;23.44;42.88;100536.13;4938090;28;96938;-90
2022/06/19 08:17:55;;;;;;;3.33;1.20;;;;;;;23.56;42.45;100541.94;4949633;28;98950;-88
2022/06/19 08:20:21;;;;;;;7.50;1.70;;;;;;;23.60;42.07;100559.84;4943575;28;98357;-87
2022/06/19 08:22:47;;;;;;;6.40;1.77;;;;;;;23.59;42.37;100569.59;4952093;28;96939;-86
2022/06/19 08:25:15;;;;;;;5.50;1.73;;;;;;;23.54;42.08;100567.06;4951162;28;97014;-89
2022/06/19 08:27:42;;;;;;;5.23;1.57;;;;;;;23.52;42.27;100578.91;4947559;28;99733;-89
2022/06/19 08:30:14;;;;;;;3.33;1.20;;;;;;;23.68;42.19;100588.56;4949522;28;101166;-91
2022/06/19 08:32:40;;;;;;;2.30;0.90;;;;;;;23.80;42.30;100595.13;4949089;28;97188;-92
2022/06/19 08:35:06;;;;;;;4.10;1.60;;;;;;;23.98;41.92;100584.53;4951340;28;97064;-86
2022/06/19 08:37:33;;;;;;;3.67;1.40;;;;;;;24.06;41.93;100590.03;4944920;28;97850;-90
2022/06/19 08:39:59;;;;;;;2.73;1.43;;;;;;;24.08;41.47;100581.75;4954778;28;97180;-90
2022/06/19 08:42:39;;;;;;;4.43;1.30;;;;;;;24.21;41.36;100584.13;4948420;28;96931;-87
2022/06/19 08:45:39;;;;;;;5.03;1.03;;;;;;;24.29;41.01;100602.34;4958025;28;97046;-87
2022/06/19 08:48:28;;;;;;;10.43;1.83;;;;;;;24.40;40.93;100612.28;4948624;28;101085;-90
2022/06/19 08:51:11;;;;;;;6.37;1.63;;;;;;;24.47;41.09;100623.41;4952449;28;96993;-89
2022/06/19 08:54:16;;;;;;;4.60;1.47;;;;;;;24.43;40.22;100630.78;4947635;28;97036;-91
2022/06/19 08:56:59;;;;;;;1.30;0.80;;;;;;;24.50;40.91;100652.41;4952033;28;96774;-90
2022/06/19 08:59:53;;;;;;;2.07;1.37;;;;;;;24.58;41.08;100638.94;4949790;28;98037;-91
2022/06/19 09:02:41;;;;;;;5.30;1.37;;;;;;;24.65;41.43;100624.00;4945559;28;100640;-88
2022/06/19 09:05:44;;;;;;;4.13;1.33;;;;;;;24.73;40.79;100624.59;4945589;28;96992;-89
2022/06/19 09:08:25;;;;;;;4.40;1.80;;;;;;;24.76;41.09;100631.88;4940537;28;96760;-86
2022/06/19 09:11:00;;;;;;;3.43;1.27;;;;;;;24.83;41.05;100636.63;4935489;28;102463;-87
2022/06/19 09:13:47;;;;;;;1.97;1.17;;;;;;;24.86;41.25;100634.69;4945891;28;96789;-89
2022/06/19 09:16:18;;;;;;;8.47;1.77;;;;;;;25.01;40.91;100631.56;4939275;28;97349;-87
2022/06/19 09:19:10;;;;;;;4.70;1.70;;;;;;;25.08;40.84;100620.13;4945681;28;96951;-89
2022/06/19 09:21:54;;;;;;;4.27;1.50;;;;;;;25.21;41.28;100630.94;4951762;28;102664;-87
2022/06/19 09:24:32;;;;;;;3.07;1.40;;;;;;;25.42;41.23;100641.59;4950637;28;97858;-88
2022/06/19 09:26:59;;;;;;;5.60;1.80;;;;;;;25.61;40.77;100663.34;4962359;28;97325;-88
2022/06/19 09:29:38;;;;;;;7.40;1.80;;;;;;;25.56;40.37;100661.56;4947140;28;97505;-88
2022/06/19 09:32:27;;;;;;;5.27;1.67;;;;;;;25.66;41.05;100654.56;4945008;28;102323;-88
2022/06/19 09:35:14;;;;;;;3.33;1.53;;;;;;;25.93;40.82;100676.84;4949288;28;100322;-87
2022/06/19 09:37:45;;;;;;;3.50;1.30;;;;;;;26.20;40.47;100682.25;4944045;28;97201;-90
2022/06/19 09:40:39;;;;;;;2.97;1.40;;;;;;;26.32;40.04;100697.19;4953015;28;97688;-86
2022/06/19 09:43:22;;;;;;;4.10;1.80;;;;;;;26.42;39.19;100698.63;4940844;28;102687;-88
2022/06/19 09:45:57;;;;;;;2.93;1.37;;;;;;;26.53;39.42;100688.75;4953853;28;101970;-92
2022/06/19 09:48:22;;;;;;;4.53;1.57;;;;;;;26.71;39.85;100695.59;4950144;28;97252;-91
2022/06/19 09:51:12;;;;;;;8.27;1.77;;;;;;;26.91;38.90;100708.25;4952556;28;96992;-90
2022/06/19 09:54:02;;;;;;;2.43;1.50;;;;;;;27.05;38.94;100717.66;4948840;28;100920;-87
2022/06/19 09:56:46;;;;;;;4.10;2.10;;;;;;;27.19;38.90;100706.53;4950648;28;101819;-89
2022/06/19 09:59:21;;;;;;;3.47;1.70;;;;;;;27.03;38.66;100702.66;4952081;28;96928;-92
2022/06/19 10:01:56;;;;;;;4.27;1.77;;;;;;;27.06;39.14;100695.81;4971676;28;96947;-91
2022/06/19 10:04:34;;;;;;;4.27;1.83;;;;;;;27.08;38.63;100721.34;4949852;28;96648;-87
2022/06/19 10:07:07;;;;;;;4.50;1.43;;;;;;;27.22;39.03;100744.84;4953626;28;97024;-88
2022/06/19 10:09:55;;;;;;;4.93;2.00;;;;;;;27.41;37.74;100724.97;4947126;28;97386;-87
2022/06/19 10:12:32;;;;;;;4.50;2.00;;;;;;;27.34;38.11;100718.16;4956420;28;96962;-89
2022/06/19 10:15:03;;;;;;;3.20;1.87;;;;;;;27.45;38.74;100708.25;4931461;28;97513;-87
2022/06/19 10:17:44;;;;;;;3.30;1.50;;;;;;;27.60;38.70;100690.84;4959384;28;97315;-90
2022/06/19 10:20:15;;;;;;;3.33;1.53;;;;;;;27.73;37.76;100714.94;4950502;28;96732;-89
2022/06/19 10:23:00;;;;;;;8.03;1.47;;;;;;;27.75;37.56;100690.38;4950513;28;96773;-90
2022/06/19 10:25:37;;;;;;;3.00;1.67;;;;;;;27.79;37.08;100690.59;4949817;28;103491;-88
2022/06/19 10:28:17;;;;;;;5.97;1.40;;;;;;;27.76;36.88;100686.16;4948236;28;97478;-90
2022/06/19 10:31:01;;;;;;;2.57;1.13;;;;;;;27.71;37.67;100707.06;4950468;28;96684;-91
2022/06/19 10:33:51;;;;;;;2.17;1.17;;;;;;;27.82;37.06;100711.28;4944462;28;97035;-91
2022/06/19 10:36:27;;;;;;;1.90;1.40;;;;;;;28.00;37.54;100699.00;4945745;28;103511;-89
2022/06/19 10:38:55;;;;;;;3.20;1.53;;;;;;;28.04;37.29;100707.75;4945600;28;98616;-91
2022/06/19 10:42:06;;;;;;;4.17;1.47;;;;;;;28.06;36.51;100743.91;4957662;28;96829;-91
2022/06/19 10:45:25;;;;;;;2.53;1.37;;;;;;;27.91;36.38;100745.09;4963178;28;96734;-88
2022/06/19 10:48:02;;;;;;;2.80;1.47;;;;;;;27.87;36.82;100729.97;4883715;28;102647;-87
2022/06/19 10:50:28;;;;;;;3.00;1.40;;;;;;;27.85;37.11;100733.41;4954419;28;100162;-91
2022/06/19 10:53:08;;;;;;;2.40;1.30;;;;;;;27.84;36.62;100748.91;4950035;28;97049;-89
2022/06/19 10:55:40;;;;;;;3.93;1.70;;;;;;;27.87;37.00;100749.78;4948496;28;96872;-90
2022/06/19 10:58:14;;;;;;;2.20;1.20;;;;;;;27.77;36.78;100755.53;4951427;28;98923;-91
2022/06/19 11:00:41;;;;;;;4.10;1.50;;;;;;;27.88;36.98;100735.00;4947924;28;96968;-89
2022/06/19 11:06:27;;;;;;;1.27;1.10;;;;;;;28.17;36.34;100724.13;4947294;28;96917;-93
2022/06/19 11:09:04;;;;;;;7.93;1.80;;;;;;;28.17;35.00;100721.28;4949384;28;96945;-87
2022/06/19 11:11:34;;;;;;;6.07;1.57;;;;;;;28.15;36.02;100746.59;4976937;28;100266;-89
2022/06/19 11:14:07;;;;;;;3.37;1.63;;;;;;;28.29;36.08;100717.69;4949728;28;96700;-87
2022/06/19 11:16:34;;;;;;;1.47;1.03;;;;;;;28.37;36.03;100704.03;4944428;28;96905;-89
2022/06/19 11:19:00;;;;;;;4.40;1.20;;;;;;;28.34;36.08;100708.09;4948676;28;99918;-89
2022/06/19 11:21:32;;;;;;;2.60;1.60;;;;;;;28.06;35.41;100681.66;4937843;28;96990;-91
2022/06/19 11:24:04;;;;;;;2.40;0.90;;;;;;;27.97;35.78;100691.75;4945260;28;96942;-87
2022/06/19 11:26:43;;;;;;;3.43;1.50;;;;;;;28.04;36.02;100681.56;4947720;28;96638;-89
2022/06/19 11:29:09;;;;;;;2.40;1.17;;;;;;;28.15;35.98;100687.19;4956829;28;97560;-88
2022/06/19 11:31:57;;;;;;;2.27;1.10;;;;;;;28.22;35.22;100681.91;4953228;28;97354;-87
2022/06/19 11:37:14;;;;;;;2.40;1.50;;;;;;;28.39;35.44;100653.22;4949188;28;96966;-89
2022/06/19 11:39:52;;;;;;;2.50;1.33;;;;;;;28.29;34.86;100656.19;4942166;28;100014;-89
2022/06/19 11:42:29;;;;;;;4.83;1.60;;;;;;;28.17;35.07;100639.22;4954241;28;97742;-90
2022/06/19 11:44:59;;;;;;;3.10;1.47;;;;;;;28.20;35.18;100597.63;4952385;28;97010;-90
2022/06/19 11:47:46;;;;;;;2.87;1.40;;;;;;;28.22;34.11;100600.56;4958234;28;97504;-89